createdAt,value
2022-09-21T00:01:14.134Z,7.10
2022-09-21T00:03:42.705Z,7.00
2022-09-21T00:06:13.395Z,7.00
2022-09-21T00:08:43.202Z,6.90
2022-09-21T00:11:14.025Z,7.00
2022-09-21T00:13:43.749Z,6.90
2022-09-21T00:16:11.752Z,6.90
2022-09-21T00:18:40.112Z,6.80
2022-09-21T00:21:09.420Z,6.80
2022-09-21T00:23:38.105Z,6.80
2022-09-21T00:26:10.855Z,6.70
2022-09-21T00:28:40.523Z,6.60
2022-09-21T00:31:12.213Z,6.60
2022-09-21T00:33:40.869Z,6.50
2022-09-21T00:36:10.941Z,6.50
2022-09-21T00:38:39.522Z,6.40
2022-09-21T00:41:10.513Z,6.40
2022-09-21T00:43:43.596Z,6.40
2022-09-21T00:46:18.738Z,6.40
2022-09-21T00:48:47.047Z,6.40
2022-09-21T00:51:15.798Z,6.40
2022-09-21T00:53:44.968Z,6.30
2022-09-21T00:56:15.464Z,6.30
2022-09-21T00:58:48.022Z,6.30
2022-09-21T01:01:18.375Z,6.30
2022-09-21T01:03:47.567Z,6.30
2022-09-21T01:06:17.749Z,6.20
2022-09-21T01:08:47.419Z,6.20
2022-09-21T01:11:34.318Z,6.20
2022-09-21T01:14:27.805Z,6.10
2022-09-21T01:17:03.471Z,6.10
2022-09-21T01:20:08.077Z,6.00
2022-09-21T01:22:51.636Z,6.00
2022-09-21T01:25:32.278Z,5.90
2022-09-21T01:28:16.460Z,5.90
2022-09-21T01:30:49.235Z,5.80
2022-09-21T01:33:23.253Z,5.80
2022-09-21T01:35:57.345Z,5.70
2022-09-21T01:38:29.003Z,5.60
2022-09-21T01:41:02.565Z,5.60
2022-09-21T01:43:34.848Z,5.50
2022-09-21T01:46:07.251Z,5.50
2022-09-21T01:48:39.545Z,5.60
2022-09-21T01:51:12.271Z,5.60
2022-09-21T01:53:44.538Z,5.60
2022-09-21T01:56:16.844Z,5.70
2022-09-21T01:58:51.236Z,5.70
2022-09-21T02:01:25.334Z,5.80
2022-09-21T02:03:57.440Z,5.80
2022-09-21T02:06:27.744Z,5.90
2022-09-21T02:08:55.945Z,5.90
2022-09-21T02:11:24.012Z,5.90
2022-09-21T02:13:54.928Z,6.00
2022-09-21T02:16:37.564Z,6.00
2022-09-21T02:19:13.567Z,6.10
2022-09-21T02:21:55.501Z,6.20
2022-09-21T02:24:32.129Z,6.20
2022-09-21T02:27:06.039Z,6.30
2022-09-21T02:29:45.540Z,6.40
2022-09-21T02:32:26.363Z,6.50
2022-09-21T02:35:03.348Z,6.60
2022-09-21T02:37:38.305Z,6.60
2022-09-21T02:40:13.246Z,6.60
2022-09-21T02:42:43.832Z,6.70
2022-09-21T02:45:16.342Z,6.80
2022-09-21T02:47:49.468Z,6.80
2022-09-21T02:50:21.563Z,6.80
2022-09-21T02:52:50.072Z,6.90
2022-09-21T02:55:19.146Z,6.90
2022-09-21T02:57:48.954Z,7.00
2022-09-21T03:00:17.606Z,7.00
2022-09-21T03:02:47.050Z,7.00
2022-09-21T03:05:16.042Z,7.00
2022-09-21T03:07:44.015Z,7.00
2022-09-21T03:10:12.322Z,7.00
2022-09-21T03:12:40.367Z,7.10
2022-09-21T03:15:08.854Z,7.10
2022-09-21T03:17:36.811Z,7.00
2022-09-21T03:20:08.007Z,7.00
2022-09-21T03:22:35.978Z,7.00
2022-09-21T03:25:04.173Z,7.00
2022-09-21T03:27:32.128Z,7.10
2022-09-21T03:30:02.324Z,7.10
2022-09-21T03:32:30.928Z,7.10
2022-09-21T03:34:59.292Z,7.10
2022-09-21T03:37:31.160Z,7.20
2022-09-21T03:40:00.294Z,7.20
2022-09-21T03:42:28.487Z,7.20
2022-09-21T03:44:56.498Z,7.20
2022-09-21T03:47:24.556Z,7.20
2022-09-21T03:49:52.509Z,7.20
2022-09-21T03:52:20.502Z,7.20
2022-09-21T03:54:50.255Z,7.20
2022-09-21T03:57:18.331Z,7.20
2022-09-21T03:59:46.458Z,7.20
2022-09-21T04:02:14.438Z,7.20
2022-09-21T04:04:42.575Z,7.20
2022-09-21T04:07:10.564Z,7.20
2022-09-21T04:09:38.561Z,7.20
2022-09-21T04:12:07.986Z,7.20
2022-09-21T04:14:36.986Z,7.10
2022-09-21T04:17:05.590Z,7.20
2022-09-21T04:19:34.298Z,7.10
2022-09-21T04:22:02.380Z,7.10
2022-09-21T04:24:30.996Z,7.10
2022-09-21T04:26:59.256Z,7.10
2022-09-21T04:29:28.597Z,7.10
2022-09-21T04:31:58.102Z,7.10
2022-09-21T04:34:26.474Z,7.00
2022-09-21T04:36:54.704Z,7.00
2022-09-21T04:39:24.150Z,7.00
2022-09-21T04:41:52.233Z,7.00
2022-09-21T04:44:20.492Z,7.00
2022-09-21T04:46:49.807Z,6.90
2022-09-21T04:49:17.920Z,6.90
2022-09-21T04:51:45.937Z,6.90
2022-09-21T04:54:13.932Z,6.80
2022-09-21T04:56:42.017Z,6.80
2022-09-21T04:59:10.784Z,6.80
2022-09-21T05:01:38.990Z,6.80
2022-09-21T05:04:08.606Z,6.70
2022-09-21T05:06:36.684Z,6.70
2022-09-21T05:09:22.221Z,6.80
2022-09-21T05:11:50.923Z,6.70
2022-09-21T05:14:18.961Z,6.70
2022-09-21T05:16:49.536Z,6.70
2022-09-21T05:19:19.026Z,6.80
2022-09-21T05:21:47.192Z,6.80
2022-09-21T05:24:15.107Z,6.80
2022-09-21T05:26:43.067Z,6.80
2022-09-21T05:29:11.554Z,6.70
2022-09-21T05:31:45.625Z,6.80
2022-09-21T05:34:34.263Z,6.70
2022-09-21T05:50:05.965Z,6.80
2022-09-21T05:52:43.183Z,6.80
2022-09-21T05:55:26.154Z,6.90
2022-09-21T05:58:02.054Z,6.90
2022-09-21T06:00:39.372Z,6.90
2022-09-21T06:03:29.207Z,7.00
2022-09-21T06:05:59.113Z,7.00
2022-09-21T06:08:27.733Z,7.00
2022-09-21T06:10:56.798Z,6.90
2022-09-21T06:13:24.679Z,6.80
2022-09-21T06:15:54.452Z,6.80
2022-09-21T06:18:22.460Z,6.70
2022-09-21T06:20:50.371Z,6.70
2022-09-21T06:23:19.951Z,6.80
2022-09-21T06:25:56.062Z,6.80
2022-09-21T06:28:27.863Z,6.80
2022-09-21T06:30:57.385Z,6.70
2022-09-21T06:33:26.129Z,6.80
2022-09-21T06:35:56.876Z,6.80
2022-09-21T06:38:27.511Z,6.70
2022-09-21T06:40:55.750Z,6.70
2022-09-21T06:43:23.838Z,6.60
2022-09-21T06:45:56.584Z,6.60
2022-09-21T06:48:24.755Z,6.60
2022-09-21T06:50:57.245Z,6.60
2022-09-21T06:53:27.454Z,6.70
2022-09-21T06:55:55.386Z,6.70
2022-09-21T06:58:23.290Z,6.80
2022-09-21T07:00:51.399Z,6.90
2022-09-21T07:03:19.350Z,7.00
2022-09-21T07:05:47.406Z,7.00
2022-09-21T07:11:04.966Z,7.10
2022-09-21T07:13:33.152Z,7.20
2022-09-21T07:16:05.133Z,7.30
2022-09-21T07:18:42.535Z,7.40
2022-09-21T07:21:12.229Z,7.40
2022-09-21T07:23:40.308Z,7.60
2022-09-21T07:26:12.055Z,7.60
2022-09-21T07:28:40.515Z,7.70
2022-09-21T07:31:10.085Z,7.70
2022-09-21T07:33:38.901Z,7.80
2022-09-21T07:36:10.578Z,7.80
2022-09-21T07:38:40.407Z,8.00
2022-09-21T07:41:10.569Z,8.00
2022-09-21T07:43:39.262Z,8.10
2022-09-21T07:46:07.916Z,8.10
2022-09-21T07:48:36.115Z,8.20
2022-09-21T07:51:06.351Z,8.10
2022-09-21T07:53:34.441Z,8.10
2022-09-21T07:56:03.458Z,8.10
2022-09-21T07:58:50.809Z,8.20
2022-09-21T08:01:18.932Z,8.30
2022-09-21T08:03:49.416Z,8.40
2022-09-21T08:06:17.360Z,8.40
2022-09-21T08:08:45.795Z,8.50
2022-09-21T08:11:13.657Z,8.50
2022-09-21T08:13:42.992Z,8.60
2022-09-21T08:16:11.306Z,8.70
2022-09-21T08:18:40.544Z,8.80
2022-09-21T08:21:12.043Z,8.90
2022-09-21T08:23:42.652Z,9.00
2022-09-21T08:26:16.321Z,9.10
2022-09-21T08:28:48.970Z,9.20
2022-09-21T08:31:19.280Z,9.30
2022-09-21T08:33:47.755Z,9.50
2022-09-21T08:36:16.081Z,9.60
2022-09-21T08:38:43.995Z,9.70
2022-09-21T08:41:19.854Z,9.70
2022-09-21T08:43:53.133Z,9.80
2022-09-21T08:46:23.875Z,9.80
2022-09-21T08:48:57.750Z,9.70
2022-09-21T08:51:29.427Z,9.60
2022-09-21T08:54:01.662Z,9.50
2022-09-21T08:56:41.890Z,9.50
2022-09-21T08:59:16.777Z,9.50
2022-09-21T09:01:59.531Z,9.50
2022-09-21T09:04:47.102Z,9.40
2022-09-21T09:07:30.295Z,9.40
2022-09-21T09:10:12.567Z,9.50
2022-09-21T09:12:52.412Z,9.50
2022-09-21T09:15:53.433Z,9.60
2022-09-21T09:18:30.221Z,9.70
2022-09-21T09:21:01.773Z,9.90
2022-09-21T09:23:35.823Z,10.00
2022-09-21T09:26:08.917Z,10.00
2022-09-21T09:28:42.964Z,10.10
2022-09-21T09:31:19.453Z,10.20
2022-09-21T09:33:54.925Z,10.40
2022-09-21T09:36:46.632Z,10.50
2022-09-21T09:39:13.738Z,10.60
2022-09-21T09:42:00.045Z,10.80
2022-09-21T09:44:50.959Z,10.90
2022-09-21T09:47:32.253Z,11.10
2022-09-21T09:50:06.022Z,11.30
2022-09-21T09:52:34.677Z,11.30
2022-09-21T09:55:12.249Z,11.20
2022-09-21T09:57:40.283Z,11.20
2022-09-21T10:00:12.127Z,11.20
2022-09-21T10:02:50.400Z,11.20
2022-09-21T10:05:24.718Z,11.20
2022-09-21T10:07:53.901Z,11.40
2022-09-21T10:10:32.556Z,11.40
2022-09-21T10:13:12.570Z,11.50
2022-09-21T10:15:46.905Z,11.50
2022-09-21T10:18:26.045Z,11.40
2022-09-21T10:20:56.822Z,11.40
2022-09-21T10:23:26.336Z,11.40
2022-09-21T10:25:57.415Z,11.40
2022-09-21T10:28:25.983Z,11.40
2022-09-21T10:31:13.109Z,11.60
2022-09-21T10:33:55.435Z,11.60
2022-09-21T10:36:34.969Z,11.60
2022-09-21T10:39:24.028Z,11.60
2022-09-21T10:42:01.470Z,11.60
2022-09-21T10:44:39.353Z,11.70
2022-09-21T10:47:21.261Z,11.90
2022-09-21T10:49:53.828Z,12.00
2022-09-21T10:52:24.964Z,12.00
2022-09-21T10:54:56.792Z,12.20
2022-09-21T10:57:27.483Z,12.20
2022-09-21T10:59:57.242Z,12.30
2022-09-21T11:02:35.708Z,12.40
2022-09-21T11:05:10.946Z,12.60
2022-09-21T11:07:44.554Z,12.70
2022-09-21T11:10:21.303Z,12.80
2022-09-21T11:13:12.634Z,12.80
2022-09-21T11:15:48.165Z,12.80
2022-09-21T11:18:23.173Z,12.70
2022-09-21T11:20:56.186Z,12.90
2022-09-21T11:23:37.423Z,13.00
2022-09-21T11:26:14.856Z,13.00
2022-09-21T11:28:49.225Z,13.10
2022-09-21T11:31:34.030Z,13.10
2022-09-21T11:34:26.981Z,13.10
2022-09-21T11:37:09.898Z,13.00
2022-09-21T11:39:50.483Z,13.20
2022-09-21T11:42:33.870Z,13.20
2022-09-21T11:45:03.832Z,13.40
2022-09-21T11:47:55.912Z,13.40
2022-09-21T11:50:57.481Z,13.30
2022-09-21T11:53:38.128Z,13.40
2022-09-21T11:56:32.167Z,13.50
2022-09-21T11:59:10.498Z,13.50
2022-09-21T12:02:01.131Z,13.40
2022-09-21T12:04:42.584Z,13.60
2022-09-21T12:07:24.955Z,13.90
2022-09-21T12:10:08.827Z,13.90
2022-09-21T12:12:45.337Z,14.10
2022-09-21T12:15:19.572Z,14.20
2022-09-21T12:17:55.272Z,14.40
2022-09-21T12:20:31.869Z,14.50
2022-09-21T12:23:04.463Z,14.60
2022-09-21T12:25:37.015Z,14.70
2022-09-21T12:28:13.029Z,14.90
2022-09-21T12:30:45.500Z,15.00
2022-09-21T12:33:20.513Z,15.10
2022-09-21T12:38:25.103Z,15.60
2022-09-21T12:41:00.052Z,15.60
2022-09-21T12:43:35.904Z,15.60
2022-09-21T12:46:13.790Z,15.60
2022-09-21T12:48:42.395Z,15.50
2022-09-21T12:51:16.839Z,15.60
2022-09-21T12:53:51.043Z,15.70
2022-09-21T12:56:29.815Z,15.70
2022-09-21T12:59:09.865Z,15.70
2022-09-21T13:01:44.446Z,15.70
2022-09-21T13:04:31.242Z,15.90
2022-09-21T13:07:35.293Z,15.90
2022-09-21T13:10:19.758Z,16.00
2022-09-21T13:12:55.102Z,16.10
2022-09-21T13:15:28.035Z,16.00
2022-09-21T13:18:01.732Z,16.10
2022-09-21T13:20:36.182Z,16.20
2022-09-21T13:23:05.338Z,16.30
2022-09-21T13:25:37.497Z,16.40
2022-09-21T13:28:19.849Z,16.50
2022-09-21T13:30:50.170Z,16.60
2022-09-21T13:33:33.545Z,16.90
2022-09-21T13:36:05.423Z,17.40
2022-09-21T13:38:37.418Z,18.30
2022-09-21T13:41:35.453Z,18.90
2022-09-21T13:44:40.474Z,19.50
2022-09-21T13:47:10.170Z,20.20
2022-09-21T13:49:45.131Z,20.80
2022-09-21T13:52:28.630Z,21.10
2022-09-21T13:55:00.642Z,21.20
2022-09-21T13:57:36.797Z,21.10
2022-09-21T14:00:33.151Z,20.90
2022-09-21T14:03:04.327Z,20.70
2022-09-21T14:05:36.840Z,20.90
2022-09-21T14:08:08.306Z,21.20
2022-09-21T14:10:39.006Z,21.30
2022-09-21T14:13:24.459Z,20.80
2022-09-21T14:15:53.833Z,20.30
2022-09-21T14:18:37.547Z,19.80
2022-09-21T14:21:17.169Z,19.30
2022-09-21T14:24:19.063Z,19.30
2022-09-21T14:27:03.436Z,19.30
2022-09-21T14:29:40.177Z,19.80
2022-09-21T14:32:18.056Z,20.00
2022-09-21T14:34:49.423Z,20.20
2022-09-21T14:37:31.975Z,20.20
2022-09-21T14:40:05.815Z,19.80
2022-09-21T14:42:34.089Z,19.50
2022-09-21T14:45:03.935Z,19.40
2022-09-21T14:47:52.529Z,19.30
2022-09-21T14:50:31.475Z,19.20
2022-09-21T14:53:29.247Z,19.00
2022-09-21T14:56:10.696Z,18.80
2022-09-21T14:58:52.052Z,18.80
2022-09-21T15:01:37.659Z,18.70
2022-09-21T15:04:46.327Z,18.60
2022-09-21T15:07:45.095Z,18.50
2022-09-21T15:10:40.185Z,18.40
2022-09-21T15:13:19.715Z,18.40
2022-09-21T15:16:07.312Z,18.30
2022-09-21T15:18:41.846Z,18.20
2022-09-21T15:21:24.112Z,18.00
2022-09-21T15:23:53.103Z,17.90
2022-09-21T15:26:29.275Z,17.70
2022-09-21T15:29:15.675Z,17.50
2022-09-21T15:31:43.866Z,17.30
2022-09-21T15:34:15.053Z,17.40
2022-09-21T15:36:48.692Z,17.60
2022-09-21T15:39:28.547Z,17.90
2022-09-21T15:42:17.935Z,18.30
2022-09-21T15:44:48.442Z,18.60
2022-09-21T15:47:19.340Z,18.90
2022-09-21T15:49:47.988Z,19.00
2022-09-21T15:52:25.266Z,19.00
2022-09-21T15:54:58.360Z,18.80
2022-09-21T15:57:38.834Z,18.50
2022-09-21T16:00:19.211Z,18.20
2022-09-21T16:03:04.814Z,18.00
2022-09-21T16:05:45.393Z,17.80
2022-09-21T16:08:34.444Z,17.80
2022-09-21T16:11:18.853Z,18.00
2022-09-21T16:14:05.880Z,18.20
2022-09-21T16:16:34.142Z,18.30
2022-09-21T16:19:02.093Z,18.40
2022-09-21T16:21:33.572Z,18.50
2022-09-21T16:24:17.944Z,18.50
2022-09-21T16:26:58.029Z,18.60
2022-09-21T16:29:27.791Z,18.50
2022-09-21T16:32:26.381Z,18.60
2022-09-21T16:34:55.528Z,18.70
2022-09-21T16:37:28.975Z,18.70
2022-09-21T16:39:59.997Z,18.70
2022-09-21T16:42:32.758Z,18.60
2022-09-21T16:45:01.399Z,18.50
2022-09-21T16:47:29.807Z,18.30
2022-09-21T16:50:01.458Z,18.00
2022-09-21T16:52:30.847Z,17.70
2022-09-21T16:55:01.216Z,17.30
2022-09-21T16:57:29.274Z,17.00
2022-09-21T16:59:58.164Z,16.90
2022-09-21T17:02:26.113Z,16.60
2022-09-21T17:04:54.109Z,16.30
2022-09-21T17:07:22.081Z,15.90
2022-09-21T17:09:50.574Z,15.60
2022-09-21T17:12:20.289Z,15.30
2022-09-21T17:14:50.041Z,15.00
2022-09-21T17:17:21.214Z,14.70
2022-09-21T17:19:50.710Z,14.40
2022-09-21T17:22:19.290Z,14.20
2022-09-21T17:24:51.813Z,14.00
2022-09-21T17:27:25.319Z,13.90
2022-09-21T17:29:55.161Z,13.80
2022-09-21T17:32:25.183Z,13.70
2022-09-21T17:34:58.574Z,13.60
2022-09-21T17:37:26.808Z,13.40
2022-09-21T17:39:54.750Z,13.30
2022-09-21T17:42:25.613Z,13.30
2022-09-21T17:45:12.850Z,13.20
2022-09-21T17:47:41.940Z,13.20
2022-09-21T17:50:19.548Z,13.10
2022-09-21T17:53:05.637Z,13.00
2022-09-21T17:55:34.038Z,12.90
2022-09-21T17:58:16.632Z,12.90
2022-09-21T18:00:53.021Z,12.80
2022-09-21T18:03:23.429Z,12.70
2022-09-21T18:05:55.774Z,12.60
2022-09-21T18:08:26.408Z,12.50
2022-09-21T18:11:03.633Z,12.50
2022-09-21T18:13:42.164Z,12.40
2022-09-21T18:16:23.187Z,12.30
2022-09-21T18:18:59.363Z,12.20
2022-09-21T18:21:28.019Z,12.20
2022-09-21T18:24:30.802Z,12.10
2022-09-21T18:27:00.181Z,11.90
2022-09-21T18:29:41.151Z,11.80
2022-09-21T18:32:29.316Z,11.60
2022-09-21T18:35:10.854Z,11.50
2022-09-21T18:37:49.919Z,11.30
2022-09-21T18:40:23.443Z,11.20
2022-09-21T18:42:57.317Z,11.10
2022-09-21T18:45:31.843Z,11.00
2022-09-21T18:48:21.367Z,10.90
2022-09-21T18:50:57.913Z,10.80
2022-09-21T18:53:33.908Z,10.70
2022-09-21T18:56:02.516Z,10.70
2022-09-21T18:58:31.104Z,10.60
2022-09-21T19:01:01.164Z,10.60
2022-09-21T19:03:29.901Z,10.50
2022-09-21T19:06:21.151Z,10.40
2022-09-21T19:08:59.237Z,10.30
2022-09-21T19:11:34.714Z,10.30
2022-09-21T19:14:09.696Z,10.20
2022-09-21T19:16:47.919Z,10.10
2022-09-21T19:19:37.331Z,10.00
2022-09-21T19:22:13.222Z,10.00
2022-09-21T19:24:49.908Z,9.90
2022-09-21T19:27:27.550Z,9.80
2022-09-21T19:30:04.514Z,9.70
2022-09-21T19:32:44.868Z,9.70
2022-09-21T19:35:19.200Z,9.60
2022-09-21T19:37:48.280Z,9.50
2022-09-21T19:40:17.793Z,9.40
2022-09-21T19:43:01.656Z,9.30
2022-09-21T19:45:39.942Z,9.30
2022-09-21T19:48:14.767Z,9.10
2022-09-21T19:50:49.653Z,9.10
2022-09-21T19:53:35.798Z,9.00
2022-09-21T19:56:26.868Z,8.90
2022-09-21T19:59:12.793Z,8.80
2022-09-21T20:01:44.392Z,8.80
2022-09-21T20:04:16.122Z,8.70
2022-09-21T20:06:54.216Z,8.70
2022-09-21T20:09:29.060Z,8.60
2022-09-21T20:12:07.795Z,8.60
2022-09-21T20:14:40.820Z,8.50
2022-09-21T20:17:12.240Z,8.50
2022-09-21T20:19:55.824Z,8.50
2022-09-21T20:22:33.638Z,8.40
2022-09-21T20:25:07.475Z,8.30
2022-09-21T20:27:40.095Z,8.30
2022-09-21T20:30:10.719Z,8.30
2022-09-21T20:32:42.135Z,8.20
2022-09-21T20:35:16.937Z,8.20
2022-09-21T20:37:45.038Z,8.20
2022-09-21T20:40:13.852Z,8.10
2022-09-21T20:42:42.804Z,8.00
2022-09-21T20:45:12.922Z,7.90
2022-09-21T20:47:41.021Z,7.80
2022-09-21T20:50:12.728Z,7.70
2022-09-21T20:52:43.060Z,7.60
2022-09-21T20:55:13.479Z,7.50
2022-09-21T20:57:41.646Z,7.40
2022-09-21T21:00:12.404Z,7.40
2022-09-21T21:02:40.646Z,7.40
2022-09-21T21:05:10.377Z,7.30
2022-09-21T21:07:38.771Z,7.30
2022-09-21T21:10:11.816Z,7.30
2022-09-21T21:12:40.076Z,7.20
2022-09-21T21:15:09.064Z,7.20
2022-09-21T21:17:37.096Z,7.10
2022-09-21T21:20:06.486Z,7.10
2022-09-21T21:22:36.243Z,7.10
2022-09-21T21:25:04.752Z,7.10
2022-09-21T21:27:33.984Z,7.10
2022-09-21T21:30:02.024Z,7.10
2022-09-21T21:32:32.367Z,7.10
2022-09-21T21:35:00.469Z,7.10
2022-09-21T21:37:29.263Z,7.10
2022-09-21T21:39:57.704Z,7.00
2022-09-21T21:42:29.251Z,7.00
2022-09-21T21:44:59.065Z,7.00
2022-09-21T21:47:39.447Z,6.90
2022-09-21T21:50:09.780Z,6.90
2022-09-21T21:52:37.976Z,6.90
2022-09-21T21:55:07.022Z,6.80
2022-09-21T21:57:35.024Z,6.80
2022-09-21T22:00:06.708Z,6.80
2022-09-21T22:02:34.807Z,6.80
2022-09-21T22:05:02.828Z,6.80
2022-09-21T22:07:30.825Z,6.80
2022-09-21T22:09:58.688Z,6.70
2022-09-21T22:12:26.667Z,6.70
2022-09-21T22:14:54.654Z,6.70
2022-09-21T22:17:24.164Z,6.70
2022-09-21T22:19:52.284Z,6.70
2022-09-21T22:22:20.286Z,6.60
2022-09-21T22:24:48.292Z,6.60
2022-09-21T22:27:16.392Z,6.50
2022-09-21T22:29:44.947Z,6.50
2022-09-21T22:32:12.845Z,6.50
2022-09-21T22:34:42.342Z,6.40
2022-09-21T22:37:10.258Z,6.40
2022-09-21T22:39:38.450Z,6.40
2022-09-21T22:42:06.575Z,6.40
2022-09-21T22:44:34.769Z,6.40
2022-09-21T22:47:02.686Z,6.30
2022-09-21T22:49:30.619Z,6.30
2022-09-21T22:52:00.105Z,6.30
2022-09-21T22:54:28.140Z,6.30
2022-09-21T22:56:56.015Z,6.20
2022-09-21T22:59:24.040Z,6.20
2022-09-21T23:01:52.042Z,6.20
2022-09-21T23:04:21.161Z,6.10
2022-09-21T23:06:50.203Z,6.10
2022-09-21T23:09:21.692Z,6.00
2022-09-21T23:11:53.039Z,6.00
2022-09-21T23:14:22.108Z,5.90
2022-09-21T23:16:50.515Z,5.80
2022-09-21T23:19:18.413Z,5.70
2022-09-21T23:21:49.421Z,5.70
2022-09-21T23:24:19.634Z,5.60
2022-09-21T23:26:50.487Z,5.60
2022-09-21T23:29:18.409Z,5.50
2022-09-21T23:31:46.657Z,5.50
2022-09-21T23:34:15.601Z,5.50
2022-09-21T23:36:43.881Z,5.50
2022-09-21T23:39:13.289Z,5.40
2022-09-21T23:41:43.512Z,5.40
2022-09-21T23:44:12.513Z,5.40
2022-09-21T23:46:41.736Z,5.40
2022-09-21T23:49:09.923Z,5.30
2022-09-21T23:51:37.930Z,5.30
2022-09-21T23:54:06.420Z,5.30
2022-09-21T23:56:34.887Z,5.30
2022-09-21T23:59:05.456Z,5.30
